sensor_id;sensor_type;location;lat;lon;timestamp;temperature;humidity
9167;DHT22;4618;48.818;9.088;2023-02-26T00:00:44;-0.10;1.00
9167;DHT22;4618;48.818;9.088;2023-02-26T00:03:09;-0.20;68.90
9167;DHT22;4618;48.818;9.088;2023-02-26T00:05:35;-0.20;99.90
9167;DHT22;4618;48.818;9.088;2023-02-26T00:08:03;-0.20;36.00
9167;DHT22;4618;48.818;9.088;2023-02-26T00:10:30;-0.20;1.00
9167;DHT22;4618;48.818;9.088;2023-02-26T00:12:56;-0.30;99.90
9167;DHT22;4618;48.818;9.088;2023-02-26T00:15:22;-0.30;99.90
9167;DHT22;4618;48.818;9.088;2023-02-26T00:18:05;-0.40;99.90
9167;DHT22;4618;48.818;9.088;2023-02-26T00:20:32;-0.40;99.90
9167;DHT22;4618;48.818;9.088;2023-02-26T00:22:58;-0.40;99.90
9167;DHT22;4618;48.818;9.088;2023-02-26T00:25:24;-0.50;99.90
9167;DHT22;4618;48.818;9.088;2023-02-26T00:27:50;-0.50;99.90
9167;DHT22;4618;48.818;9.088;2023-02-26T00:30:16;-0.50;1.00
9167;DHT22;4618;48.818;9.088;2023-02-26T00:32:43;-0.50;1.00
9167;DHT22;4618;48.818;9.088;2023-02-26T00:35:14;-0.60;12.70
9167;DHT22;4618;48.818;9.088;2023-02-26T00:38:04;-0.60;87.20
9167;DHT22;4618;48.818;9.088;2023-02-26T00:40:48;-0.70;87.40
9167;DHT22;4618;48.818;9.088;2023-02-26T00:43:31;-0.80;99.90
9167;DHT22;4618;48.818;9.088;2023-02-26T00:46:20;-0.90;99.90
9167;DHT22;4618;48.818;9.088;2023-02-26T00:49:31;-0.90;99.90
9167;DHT22;4618;48.818;9.088;2023-02-26T00:55:03;-0.90;1.00
9167;DHT22;4618;48.818;9.088;2023-02-26T00:57:28;-0.90;99.90
9167;DHT22;4618;48.818;9.088;2023-02-26T00:59:54;-1.10;99.90
9167;DHT22;4618;48.818;9.088;2023-02-26T01:02:22;-1.10;1.00
9167;DHT22;4618;48.818;9.088;2023-02-26T01:04:48;-1.10;1.00
9167;DHT22;4618;48.818;9.088;2023-02-26T01:07:18;-1.10;1.00
9167;DHT22;4618;48.818;9.088;2023-02-26T01:09:46;-1.20;1.00
9167;DHT22;4618;48.818;9.088;2023-02-26T01:12:12;-1.10;99.90
9167;DHT22;4618;48.818;9.088;2023-02-26T01:14:38;-1.20;1.00
9167;DHT22;4618;48.818;9.088;2023-02-26T01:17:14;-1.20;1.00
9167;DHT22;4618;48.818;9.088;2023-02-26T01:20:00;-1.10;1.00
9167;DHT22;4618;48.818;9.088;2023-02-26T01:25:10;-1.30;1.00
9167;DHT22;4618;48.818;9.088;2023-02-26T01:27:36;-1.40;1.00
9167;DHT22;4618;48.818;9.088;2023-02-26T01:30:05;-1.50;1.00
9167;DHT22;4618;48.818;9.088;2023-02-26T01:32:48;-1.60;1.00
9167;DHT22;4618;48.818;9.088;2023-02-26T01:35:50;-1.80;99.90
9167;DHT22;4618;48.818;9.088;2023-02-26T01:49:23;-2.20;99.90
9167;DHT22;4618;48.818;9.088;2023-02-26T01:51:55;-2.20;99.90
9167;DHT22;4618;48.818;9.088;2023-02-26T01:54:35;-2.30;99.90
9167;DHT22;4618;48.818;9.088;2023-02-26T01:57:07;-2.40;99.90
9167;DHT22;4618;48.818;9.088;2023-02-26T01:59:41;-2.40;99.90
9167;DHT22;4618;48.818;9.088;2023-02-26T02:02:09;-2.50;99.90
9167;DHT22;4618;48.818;9.088;2023-02-26T02:04:37;-2.50;99.90
9167;DHT22;4618;48.818;9.088;2023-02-26T02:07:07;-2.50;99.90
9167;DHT22;4618;48.818;9.088;2023-02-26T02:09:33;-2.60;99.90
9167;DHT22;4618;48.818;9.088;2023-02-26T02:12:06;-2.70;99.90
9167;DHT22;4618;48.818;9.088;2023-02-26T02:20:28;-3.20;1.00
9167;DHT22;4618;48.818;9.088;2023-02-26T02:23:29;-3.30;1.00
9167;DHT22;4618;48.818;9.088;2023-02-26T02:26:30;-3.10;1.00
9167;DHT22;4618;48.818;9.088;2023-02-26T02:31:34;-2.90;1.00
9167;DHT22;4618;48.818;9.088;2023-02-26T02:34:19;-3.00;1.00
9167;DHT22;4618;48.818;9.088;2023-02-26T02:36:52;-2.90;1.00
9167;DHT22;4618;48.818;9.088;2023-02-26T02:39:33;-3.10;1.00
9167;DHT22;4618;48.818;9.088;2023-02-26T02:42:08;-3.30;1.00
9167;DHT22;4618;48.818;9.088;2023-02-26T02:44:46;-3.40;1.00
9167;DHT22;4618;48.818;9.088;2023-02-26T02:47:14;-3.50;45.20
9167;DHT22;4618;48.818;9.088;2023-02-26T02:49:50;-3.60;99.90
9167;DHT22;4618;48.818;9.088;2023-02-26T02:52:23;-3.60;99.90
9167;DHT22;4618;48.818;9.088;2023-02-26T02:55:02;-3.60;99.90
9167;DHT22;4618;48.818;9.088;2023-02-26T02:57:45;-3.70;99.90
9167;DHT22;4618;48.818;9.088;2023-02-26T03:00:18;-3.70;99.90
9167;DHT22;4618;48.818;9.088;2023-02-26T03:05:27;-3.70;1.00
9167;DHT22;4618;48.818;9.088;2023-02-26T03:08:04;-3.50;1.00
9167;DHT22;4618;48.818;9.088;2023-02-26T03:10:31;-3.50;99.90
9167;DHT22;4618;48.818;9.088;2023-02-26T03:12:56;-3.50;99.90
9167;DHT22;4618;48.818;9.088;2023-02-26T03:15:46;-3.50;1.00
9167;DHT22;4618;48.818;9.088;2023-02-26T03:21:47;-3.30;1.00
9167;DHT22;4618;48.818;9.088;2023-02-26T03:23:56;-3.20;1.00
9167;DHT22;4618;48.818;9.088;2023-02-26T03:26:30;-3.10;1.00
9167;DHT22;4618;48.818;9.088;2023-02-26T03:29:19;-2.90;99.90
9167;DHT22;4618;48.818;9.088;2023-02-26T03:32:13;-2.80;99.90
9167;DHT22;4618;48.818;9.088;2023-02-26T03:34:48;-2.70;99.90
9167;DHT22;4618;48.818;9.088;2023-02-26T03:37:28;-2.80;1.00
9167;DHT22;4618;48.818;9.088;2023-02-26T03:40:01;-3.00;1.00
9167;DHT22;4618;48.818;9.088;2023-02-26T03:42:44;-3.30;1.00
9167;DHT22;4618;48.818;9.088;2023-02-26T03:45:13;-3.40;51.10
9167;DHT22;4618;48.818;9.088;2023-02-26T03:47:42;-3.40;99.90
9167;DHT22;4618;48.818;9.088;2023-02-26T03:50:13;-3.50;99.90
9167;DHT22;4618;48.818;9.088;2023-02-26T03:52:42;-3.50;99.90
9167;DHT22;4618;48.818;9.088;2023-02-26T03:55:18;-3.60;1.00
9167;DHT22;4618;48.818;9.088;2023-02-26T03:57:45;-3.70;1.00
9167;DHT22;4618;48.818;9.088;2023-02-26T04:00:12;-3.70;1.00
9167;DHT22;4618;48.818;9.088;2023-02-26T04:02:58;-3.80;1.00
9167;DHT22;4618;48.818;9.088;2023-02-26T04:05:28;-3.90;1.00
9167;DHT22;4618;48.818;9.088;2023-02-26T04:07:56;-3.90;1.00
9167;DHT22;4618;48.818;9.088;2023-02-26T04:10:29;-3.90;1.00
9167;DHT22;4618;48.818;9.088;2023-02-26T04:13:01;-3.90;1.00
9167;DHT22;4618;48.818;9.088;2023-02-26T04:15:27;-3.90;1.00
9167;DHT22;4618;48.818;9.088;2023-02-26T04:17:53;-4.00;1.00
9167;DHT22;4618;48.818;9.088;2023-02-26T04:20:18;-4.20;1.00
9167;DHT22;4618;48.818;9.088;2023-02-26T04:22:44;-4.10;1.00
9167;DHT22;4618;48.818;9.088;2023-02-26T04:25:10;-4.00;99.90
9167;DHT22;4618;48.818;9.088;2023-02-26T04:27:35;-3.90;99.90
9167;DHT22;4618;48.818;9.088;2023-02-26T04:30:01;-3.80;1.00
9167;DHT22;4618;48.818;9.088;2023-02-26T04:32:26;-3.70;1.00
9167;DHT22;4618;48.818;9.088;2023-02-26T04:34:52;-3.70;1.00
9167;DHT22;4618;48.818;9.088;2023-02-26T04:37:18;-3.70;1.00
9167;DHT22;4618;48.818;9.088;2023-02-26T04:39:43;-3.80;1.00
9167;DHT22;4618;48.818;9.088;2023-02-26T04:42:09;-3.80;1.00
9167;DHT22;4618;48.818;9.088;2023-02-26T04:44:34;-3.80;1.00
9167;DHT22;4618;48.818;9.088;2023-02-26T04:47:00;-3.80;1.00
9167;DHT22;4618;48.818;9.088;2023-02-26T04:49:26;-3.80;1.00
9167;DHT22;4618;48.818;9.088;2023-02-26T04:51:51;-3.90;1.00
9167;DHT22;4618;48.818;9.088;2023-02-26T04:54:17;-4.10;1.00
9167;DHT22;4618;48.818;9.088;2023-02-26T04:56:42;-4.10;1.00
9167;DHT22;4618;48.818;9.088;2023-02-26T04:59:08;-4.00;1.00
9167;DHT22;4618;48.818;9.088;2023-02-26T05:01:34;-3.90;1.00
9167;DHT22;4618;48.818;9.088;2023-02-26T05:04:00;-3.80;1.00
9167;DHT22;4618;48.818;9.088;2023-02-26T05:06:26;-3.60;1.00
9167;DHT22;4618;48.818;9.088;2023-02-26T05:08:51;-3.50;1.00
9167;DHT22;4618;48.818;9.088;2023-02-26T05:11:17;-3.60;99.90
9167;DHT22;4618;48.818;9.088;2023-02-26T05:13:42;-3.70;99.90
9167;DHT22;4618;48.818;9.088;2023-02-26T05:16:08;-3.80;99.90
9167;DHT22;4618;48.818;9.088;2023-02-26T05:18:33;-3.80;99.90
9167;DHT22;4618;48.818;9.088;2023-02-26T05:20:59;-3.90;1.00
9167;DHT22;4618;48.818;9.088;2023-02-26T05:23:25;-3.90;1.00
9167;DHT22;4618;48.818;9.088;2023-02-26T05:25:54;-3.80;1.00
9167;DHT22;4618;48.818;9.088;2023-02-26T05:28:20;-3.70;1.00
9167;DHT22;4618;48.818;9.088;2023-02-26T05:30:46;-3.60;1.00
9167;DHT22;4618;48.818;9.088;2023-02-26T05:33:11;-3.50;99.90
9167;DHT22;4618;48.818;9.088;2023-02-26T05:35:37;-3.50;99.90
9167;DHT22;4618;48.818;9.088;2023-02-26T05:38:03;-3.50;99.90
9167;DHT22;4618;48.818;9.088;2023-02-26T05:40:29;-3.50;99.90
9167;DHT22;4618;48.818;9.088;2023-02-26T05:42:54;-3.60;99.90
9167;DHT22;4618;48.818;9.088;2023-02-26T05:45:20;-3.60;1.00
9167;DHT22;4618;48.818;9.088;2023-02-26T05:47:45;-3.70;1.00
9167;DHT22;4618;48.818;9.088;2023-02-26T05:50:11;-3.80;1.00
9167;DHT22;4618;48.818;9.088;2023-02-26T05:52:37;-3.90;5.20
9167;DHT22;4618;48.818;9.088;2023-02-26T05:55:03;-3.80;85.70
9167;DHT22;4618;48.818;9.088;2023-02-26T05:57:29;-3.80;2.20
9167;DHT22;4618;48.818;9.088;2023-02-26T05:59:54;-3.90;95.80
9167;DHT22;4618;48.818;9.088;2023-02-26T06:02:20;-3.90;99.90
9167;DHT22;4618;48.818;9.088;2023-02-26T06:04:46;-3.90;89.60
9167;DHT22;4618;48.818;9.088;2023-02-26T06:07:11;-3.90;40.80
9167;DHT22;4618;48.818;9.088;2023-02-26T06:09:37;-4.00;1.00
9167;DHT22;4618;48.818;9.088;2023-02-26T06:12:03;-4.10;1.00
9167;DHT22;4618;48.818;9.088;2023-02-26T06:14:29;-4.10;60.00
9167;DHT22;4618;48.818;9.088;2023-02-26T06:16:54;-4.00;99.90
9167;DHT22;4618;48.818;9.088;2023-02-26T06:19:20;-4.00;99.90
9167;DHT22;4618;48.818;9.088;2023-02-26T06:21:46;-4.10;85.70
9167;DHT22;4618;48.818;9.088;2023-02-26T06:24:12;-4.20;99.90
9167;DHT22;4618;48.818;9.088;2023-02-26T06:26:37;-4.10;99.90
9167;DHT22;4618;48.818;9.088;2023-02-26T06:29:03;-4.10;99.90
9167;DHT22;4618;48.818;9.088;2023-02-26T06:31:29;-4.10;99.90
9167;DHT22;4618;48.818;9.088;2023-02-26T06:33:54;-4.20;99.90
9167;DHT22;4618;48.818;9.088;2023-02-26T06:36:20;-4.20;99.90
9167;DHT22;4618;48.818;9.088;2023-02-26T06:38:45;-4.10;99.90
9167;DHT22;4618;48.818;9.088;2023-02-26T06:41:11;-3.90;99.90
9167;DHT22;4618;48.818;9.088;2023-02-26T06:43:38;-3.80;99.90
9167;DHT22;4618;48.818;9.088;2023-02-26T06:46:04;-3.60;99.90
9167;DHT22;4618;48.818;9.088;2023-02-26T06:48:30;-3.40;17.90
9167;DHT22;4618;48.818;9.088;2023-02-26T06:50:55;-3.20;1.00
9167;DHT22;4618;48.818;9.088;2023-02-26T06:53:21;-3.00;99.90
9167;DHT22;4618;48.818;9.088;2023-02-26T06:55:50;-2.80;99.90
9167;DHT22;4618;48.818;9.088;2023-02-26T06:58:16;-2.70;99.90
9167;DHT22;4618;48.818;9.088;2023-02-26T07:00:41;-2.50;1.00
9167;DHT22;4618;48.818;9.088;2023-02-26T07:03:11;-2.40;1.00
9167;DHT22;4618;48.818;9.088;2023-02-26T07:05:37;-2.20;1.00
9167;DHT22;4618;48.818;9.088;2023-02-26T07:08:03;-2.30;1.00
9167;DHT22;4618;48.818;9.088;2023-02-26T07:10:31;-2.10;1.00
9167;DHT22;4618;48.818;9.088;2023-02-26T07:12:57;-2.10;99.90
9167;DHT22;4618;48.818;9.088;2023-02-26T07:15:23;-2.00;99.90
9167;DHT22;4618;48.818;9.088;2023-02-26T07:17:48;-1.80;99.90
9167;DHT22;4618;48.818;9.088;2023-02-26T07:20:14;-1.80;99.90
9167;DHT22;4618;48.818;9.088;2023-02-26T07:22:39;-1.70;99.90
9167;DHT22;4618;48.818;9.088;2023-02-26T07:25:05;-1.70;99.90
9167;DHT22;4618;48.818;9.088;2023-02-26T07:27:32;-1.70;99.90
9167;DHT22;4618;48.818;9.088;2023-02-26T07:29:59;-1.60;99.90
9167;DHT22;4618;48.818;9.088;2023-02-26T07:32:25;-1.50;99.90
9167;DHT22;4618;48.818;9.088;2023-02-26T07:34:50;-1.40;99.90
9167;DHT22;4618;48.818;9.088;2023-02-26T07:37:16;-1.40;99.90
9167;DHT22;4618;48.818;9.088;2023-02-26T07:39:42;-1.40;90.10
9167;DHT22;4618;48.818;9.088;2023-02-26T07:42:07;-1.30;25.60
9167;DHT22;4618;48.818;9.088;2023-02-26T07:44:34;-1.20;7.70
9167;DHT22;4618;48.818;9.088;2023-02-26T07:46:59;-1.00;1.00
9167;DHT22;4618;48.818;9.088;2023-02-26T07:49:25;-0.80;1.00
9167;DHT22;4618;48.818;9.088;2023-02-26T07:51:51;-0.70;1.00
9167;DHT22;4618;48.818;9.088;2023-02-26T07:54:16;-0.60;99.90
9167;DHT22;4618;48.818;9.088;2023-02-26T07:56:42;-0.60;99.90
9167;DHT22;4618;48.818;9.088;2023-02-26T07:59:09;-0.50;99.90
9167;DHT22;4618;48.818;9.088;2023-02-26T08:01:35;-0.50;99.90
9167;DHT22;4618;48.818;9.088;2023-02-26T08:04:01;-0.50;99.90
9167;DHT22;4618;48.818;9.088;2023-02-26T08:06:27;-0.60;99.90
9167;DHT22;4618;48.818;9.088;2023-02-26T08:08:53;-0.60;99.90
9167;DHT22;4618;48.818;9.088;2023-02-26T08:11:19;-0.60;99.90
9167;DHT22;4618;48.818;9.088;2023-02-26T08:13:45;-0.60;99.90
9167;DHT22;4618;48.818;9.088;2023-02-26T08:16:11;-0.50;99.90
9167;DHT22;4618;48.818;9.088;2023-02-26T08:18:36;-0.30;99.90
9167;DHT22;4618;48.818;9.088;2023-02-26T08:21:02;0.00;99.90
9167;DHT22;4618;48.818;9.088;2023-02-26T08:23:28;0.30;1.00
9167;DHT22;4618;48.818;9.088;2023-02-26T08:26:06;0.40;1.00
9167;DHT22;4618;48.818;9.088;2023-02-26T08:28:32;0.30;1.00
9167;DHT22;4618;48.818;9.088;2023-02-26T08:30:59;0.30;1.00
9167;DHT22;4618;48.818;9.088;2023-02-26T08:33:25;0.20;1.00
9167;DHT22;4618;48.818;9.088;2023-02-26T08:35:51;0.30;1.00
9167;DHT22;4618;48.818;9.088;2023-02-26T08:38:18;0.30;99.90
9167;DHT22;4618;48.818;9.088;2023-02-26T08:40:43;0.30;1.00
9167;DHT22;4618;48.818;9.088;2023-02-26T08:43:09;0.30;1.00
9167;DHT22;4618;48.818;9.088;2023-02-26T08:45:36;0.30;99.90
9167;DHT22;4618;48.818;9.088;2023-02-26T08:48:02;0.40;1.00
9167;DHT22;4618;48.818;9.088;2023-02-26T08:50:28;0.90;99.90
9167;DHT22;4618;48.818;9.088;2023-02-26T08:52:54;1.20;99.90
9167;DHT22;4618;48.818;9.088;2023-02-26T08:55:20;1.20;41.50
9167;DHT22;4618;48.818;9.088;2023-02-26T08:57:45;1.30;1.00
9167;DHT22;4618;48.818;9.088;2023-02-26T09:00:12;1.60;1.00
9167;DHT22;4618;48.818;9.088;2023-02-26T09:02:40;1.10;1.00
9167;DHT22;4618;48.818;9.088;2023-02-26T09:05:06;0.60;1.00
9167;DHT22;4618;48.818;9.088;2023-02-26T09:07:32;0.50;1.00
9167;DHT22;4618;48.818;9.088;2023-02-26T09:09:57;0.20;1.00
9167;DHT22;4618;48.818;9.088;2023-02-26T09:12:23;0.10;1.00
9167;DHT22;4618;48.818;9.088;2023-02-26T09:14:49;0.10;1.00
9167;DHT22;4618;48.818;9.088;2023-02-26T09:17:14;0.20;1.00
9167;DHT22;4618;48.818;9.088;2023-02-26T09:19:40;0.30;1.00
9167;DHT22;4618;48.818;9.088;2023-02-26T09:22:06;0.30;1.00
9167;DHT22;4618;48.818;9.088;2023-02-26T09:24:31;0.40;1.00
9167;DHT22;4618;48.818;9.088;2023-02-26T09:26:57;0.30;99.90
9167;DHT22;4618;48.818;9.088;2023-02-26T09:29:23;0.20;1.00
9167;DHT22;4618;48.818;9.088;2023-02-26T09:31:48;0.20;1.00
9167;DHT22;4618;48.818;9.088;2023-02-26T09:34:14;0.20;1.00
9167;DHT22;4618;48.818;9.088;2023-02-26T09:36:40;0.10;1.00
9167;DHT22;4618;48.818;9.088;2023-02-26T09:39:05;0.20;1.00
9167;DHT22;4618;48.818;9.088;2023-02-26T09:41:36;0.30;1.00
9167;DHT22;4618;48.818;9.088;2023-02-26T09:51:55;0.00;1.00
9167;DHT22;4618;48.818;9.088;2023-02-26T09:54:30;0.00;1.00
9167;DHT22;4618;48.818;9.088;2023-02-26T09:56:59;0.00;1.00
9167;DHT22;4618;48.818;9.088;2023-02-26T09:59:28;-0.10;99.90
9167;DHT22;4618;48.818;9.088;2023-02-26T10:01:59;-0.10;99.90
9167;DHT22;4618;48.818;9.088;2023-02-26T10:12:28;-0.10;99.90
9167;DHT22;4618;48.818;9.088;2023-02-26T10:15:02;0.00;1.00
9167;DHT22;4618;48.818;9.088;2023-02-26T10:17:38;-0.10;99.90
9167;DHT22;4618;48.818;9.088;2023-02-26T10:20:14;-0.20;1.00
9167;DHT22;4618;48.818;9.088;2023-02-26T10:22:52;-0.20;1.00
9167;DHT22;4618;48.818;9.088;2023-02-26T10:25:30;-0.30;1.00
9167;DHT22;4618;48.818;9.088;2023-02-26T10:28:16;-0.20;1.00
9167;DHT22;4618;48.818;9.088;2023-02-26T10:33:42;0.10;99.90
9167;DHT22;4618;48.818;9.088;2023-02-26T10:36:25;0.20;99.90
9167;DHT22;4618;48.818;9.088;2023-02-26T10:39:02;0.50;99.90
9167;DHT22;4618;48.818;9.088;2023-02-26T10:41:33;0.60;99.90
9167;DHT22;4618;48.818;9.088;2023-02-26T10:44:08;0.70;1.00
9167;DHT22;4618;48.818;9.088;2023-02-26T10:46:45;0.90;99.90
9167;DHT22;4618;48.818;9.088;2023-02-26T10:51:53;1.20;99.90
9167;DHT22;4618;48.818;9.088;2023-02-26T10:54:30;1.30;1.00
9167;DHT22;4618;48.818;9.088;2023-02-26T10:56:57;1.40;1.00
9167;DHT22;4618;48.818;9.088;2023-02-26T10:59:23;1.60;1.00
9167;DHT22;4618;48.818;9.088;2023-02-26T11:01:50;1.60;99.90
9167;DHT22;4618;48.818;9.088;2023-02-26T11:04:20;1.70;99.90
9167;DHT22;4618;48.818;9.088;2023-02-26T11:06:48;1.70;54.60
9167;DHT22;4618;48.818;9.088;2023-02-26T11:09:30;1.50;36.10
9167;DHT22;4618;48.818;9.088;2023-02-26T11:12:14;1.40;99.90
9167;DHT22;4618;48.818;9.088;2023-02-26T11:14:45;1.20;99.90
9167;DHT22;4618;48.818;9.088;2023-02-26T11:17:16;1.20;99.90
9167;DHT22;4618;48.818;9.088;2023-02-26T11:19:52;1.20;99.90
9167;DHT22;4618;48.818;9.088;2023-02-26T11:22:21;1.20;99.90
9167;DHT22;4618;48.818;9.088;2023-02-26T11:24:48;1.10;99.90
9167;DHT22;4618;48.818;9.088;2023-02-26T11:27:18;1.10;99.90
9167;DHT22;4618;48.818;9.088;2023-02-26T11:29:53;1.20;99.90
9167;DHT22;4618;48.818;9.088;2023-02-26T11:32:23;1.60;99.90
9167;DHT22;4618;48.818;9.088;2023-02-26T11:34:53;2.30;1.00
9167;DHT22;4618;48.818;9.088;2023-02-26T11:37:30;2.80;1.00
9167;DHT22;4618;48.818;9.088;2023-02-26T11:40:04;3.40;1.00
9167;DHT22;4618;48.818;9.088;2023-02-26T11:42:36;3.40;99.90
9167;DHT22;4618;48.818;9.088;2023-02-26T11:45:06;3.20;99.90
9167;DHT22;4618;48.818;9.088;2023-02-26T11:47:32;3.00;1.00
9167;DHT22;4618;48.818;9.088;2023-02-26T11:50:04;3.00;1.00
9167;DHT22;4618;48.818;9.088;2023-02-26T11:52:40;2.80;99.90
9167;DHT22;4618;48.818;9.088;2023-02-26T11:55:28;2.90;99.90
9167;DHT22;4618;48.818;9.088;2023-02-26T11:57:56;3.00;99.90
9167;DHT22;4618;48.818;9.088;2023-02-26T12:00:29;2.70;99.90
9167;DHT22;4618;48.818;9.088;2023-02-26T12:03:03;2.30;99.90
9167;DHT22;4618;48.818;9.088;2023-02-26T12:05:30;2.20;99.90
9167;DHT22;4618;48.818;9.088;2023-02-26T12:07:56;2.10;1.00
9167;DHT22;4618;48.818;9.088;2023-02-26T12:10:31;1.80;1.00
9167;DHT22;4618;48.818;9.088;2023-02-26T12:13:27;1.50;1.00
9167;DHT22;4618;48.818;9.088;2023-02-26T12:16:27;1.50;1.00
9167;DHT22;4618;48.818;9.088;2023-02-26T12:19:00;1.60;1.00
9167;DHT22;4618;48.818;9.088;2023-02-26T12:24:30;1.60;1.00
9167;DHT22;4618;48.818;9.088;2023-02-26T12:27:23;1.70;1.00
9167;DHT22;4618;48.818;9.088;2023-02-26T12:30:44;1.90;1.00
9167;DHT22;4618;48.818;9.088;2023-02-26T12:33:03;2.00;1.00
9167;DHT22;4618;48.818;9.088;2023-02-26T12:38:56;2.20;1.00
9167;DHT22;4618;48.818;9.088;2023-02-26T12:41:51;2.00;1.00
9167;DHT22;4618;48.818;9.088;2023-02-26T12:44:37;2.00;1.00
9167;DHT22;4618;48.818;9.088;2023-02-26T12:47:27;1.90;1.00
9167;DHT22;4618;48.818;9.088;2023-02-26T12:50:17;1.80;1.00
9167;DHT22;4618;48.818;9.088;2023-02-26T12:53:00;1.70;1.00
9167;DHT22;4618;48.818;9.088;2023-02-26T12:55:50;1.70;1.00
9167;DHT22;4618;48.818;9.088;2023-02-26T13:01:28;1.80;1.00
9167;DHT22;4618;48.818;9.088;2023-02-26T13:07:02;2.10;1.00
9167;DHT22;4618;48.818;9.088;2023-02-26T13:12:41;2.10;1.00
9167;DHT22;4618;48.818;9.088;2023-02-26T13:18:59;2.60;99.90
9167;DHT22;4618;48.818;9.088;2023-02-26T13:21:15;2.60;99.90
9167;DHT22;4618;48.818;9.088;2023-02-26T13:23:54;2.80;99.90
9167;DHT22;4618;48.818;9.088;2023-02-26T13:26:22;3.00;99.90
9167;DHT22;4618;48.818;9.088;2023-02-26T13:31:27;2.60;99.90
9167;DHT22;4618;48.818;9.088;2023-02-26T13:33:55;2.50;99.90
9167;DHT22;4618;48.818;9.088;2023-02-26T13:36:23;2.30;99.90
9167;DHT22;4618;48.818;9.088;2023-02-26T13:39:28;2.40;99.90
9167;DHT22;4618;48.818;9.088;2023-02-26T13:44:59;2.30;1.00
9167;DHT22;4618;48.818;9.088;2023-02-26T13:47:40;2.40;1.00
9167;DHT22;4618;48.818;9.088;2023-02-26T13:55:52;2.70;1.00
9167;DHT22;4618;48.818;9.088;2023-02-26T13:58:33;2.50;99.90
9167;DHT22;4618;48.818;9.088;2023-02-26T14:03:48;2.50;99.90
9167;DHT22;4618;48.818;9.088;2023-02-26T14:08:52;2.80;99.90
9167;DHT22;4618;48.818;9.088;2023-02-26T14:24:53;3.20;99.90
9167;DHT22;4618;48.818;9.088;2023-02-26T14:35:24;3.60;99.90
9167;DHT22;4618;48.818;9.088;2023-02-26T14:40:37;3.10;99.90
9167;DHT22;4618;48.818;9.088;2023-02-26T14:43:04;3.00;99.90
9167;DHT22;4618;48.818;9.088;2023-02-26T14:45:36;2.90;99.90
9167;DHT22;4618;48.818;9.088;2023-02-26T14:48:06;2.80;99.90
9167;DHT22;4618;48.818;9.088;2023-02-26T14:51:19;2.70;99.90
9167;DHT22;4618;48.818;9.088;2023-02-26T14:54:14;2.70;99.90
9167;DHT22;4618;48.818;9.088;2023-02-26T14:59:41;3.00;99.90
9167;DHT22;4618;48.818;9.088;2023-02-26T15:05:13;2.80;99.90
9167;DHT22;4618;48.818;9.088;2023-02-26T15:16:33;2.40;99.90
9167;DHT22;4618;48.818;9.088;2023-02-26T15:19:20;2.50;99.90
9167;DHT22;4618;48.818;9.088;2023-02-26T15:24:17;2.50;99.90
9167;DHT22;4618;48.818;9.088;2023-02-26T15:26:53;2.50;99.90
9167;DHT22;4618;48.818;9.088;2023-02-26T15:29:23;2.50;99.90
9167;DHT22;4618;48.818;9.088;2023-02-26T15:31:59;2.50;99.90
9167;DHT22;4618;48.818;9.088;2023-02-26T15:34:27;2.10;99.90
9167;DHT22;4618;48.818;9.088;2023-02-26T15:36:56;1.90;99.90
9167;DHT22;4618;48.818;9.088;2023-02-26T15:39:23;1.70;99.90
9167;DHT22;4618;48.818;9.088;2023-02-26T15:41:50;1.60;99.90
9167;DHT22;4618;48.818;9.088;2023-02-26T15:44:21;1.60;99.90
9167;DHT22;4618;48.818;9.088;2023-02-26T15:46:55;2.00;99.90
9167;DHT22;4618;48.818;9.088;2023-02-26T15:51:51;4.50;99.90
9167;DHT22;4618;48.818;9.088;2023-02-26T15:54:21;5.10;99.90
9167;DHT22;4618;48.818;9.088;2023-02-26T15:56:47;5.60;99.90
9167;DHT22;4618;48.818;9.088;2023-02-26T15:59:18;5.50;99.90
9167;DHT22;4618;48.818;9.088;2023-02-26T16:01:47;5.70;99.90
9167;DHT22;4618;48.818;9.088;2023-02-26T16:04:17;5.40;99.90
9167;DHT22;4618;48.818;9.088;2023-02-26T16:06:45;4.80;99.90
9167;DHT22;4618;48.818;9.088;2023-02-26T16:09:29;4.50;99.90
9167;DHT22;4618;48.818;9.088;2023-02-26T16:11:57;3.80;99.90
9167;DHT22;4618;48.818;9.088;2023-02-26T16:14:27;3.00;99.90
9167;DHT22;4618;48.818;9.088;2023-02-26T16:16:55;2.60;99.90
9167;DHT22;4618;48.818;9.088;2023-02-26T16:19:34;2.20;99.90
9167;DHT22;4618;48.818;9.088;2023-02-26T16:22:06;1.80;99.90
9167;DHT22;4618;48.818;9.088;2023-02-26T16:24:32;1.60;99.90
9167;DHT22;4618;48.818;9.088;2023-02-26T16:27:02;1.40;99.90
9167;DHT22;4618;48.818;9.088;2023-02-26T16:29:32;1.40;99.90
9167;DHT22;4618;48.818;9.088;2023-02-26T16:32:02;1.30;99.90
9167;DHT22;4618;48.818;9.088;2023-02-26T16:34:35;1.20;99.90
9167;DHT22;4618;48.818;9.088;2023-02-26T16:37:32;1.10;99.90
9167;DHT22;4618;48.818;9.088;2023-02-26T16:40:22;1.00;99.90
9167;DHT22;4618;48.818;9.088;2023-02-26T16:47:59;0.90;99.90
9167;DHT22;4618;48.818;9.088;2023-02-26T16:50:27;0.90;99.90
9167;DHT22;4618;48.818;9.088;2023-02-26T16:53:15;0.90;99.90
9167;DHT22;4618;48.818;9.088;2023-02-26T16:55:47;0.90;99.90
9167;DHT22;4618;48.818;9.088;2023-02-26T16:58:14;0.90;99.90
9167;DHT22;4618;48.818;9.088;2023-02-26T17:00:43;0.90;99.90
9167;DHT22;4618;48.818;9.088;2023-02-26T17:03:20;0.90;99.90
9167;DHT22;4618;48.818;9.088;2023-02-26T17:06:01;0.80;99.90
9167;DHT22;4618;48.818;9.088;2023-02-26T17:08:32;0.80;99.90
9167;DHT22;4618;48.818;9.088;2023-02-26T17:11:07;0.80;99.90
9167;DHT22;4618;48.818;9.088;2023-02-26T17:13:35;0.70;99.90
9167;DHT22;4618;48.818;9.088;2023-02-26T17:16:05;0.70;99.90
9167;DHT22;4618;48.818;9.088;2023-02-26T17:18:34;0.70;99.90
9167;DHT22;4618;48.818;9.088;2023-02-26T17:21:00;0.70;99.90
9167;DHT22;4618;48.818;9.088;2023-02-26T17:23:32;0.60;99.90
9167;DHT22;4618;48.818;9.088;2023-02-26T17:26:01;0.50;99.90
9167;DHT22;4618;48.818;9.088;2023-02-26T17:28:33;0.30;99.90
9167;DHT22;4618;48.818;9.088;2023-02-26T17:31:01;0.30;99.90
9167;DHT22;4618;48.818;9.088;2023-02-26T17:33:27;0.30;99.90
9167;DHT22;4618;48.818;9.088;2023-02-26T17:35:57;0.30;99.90
9167;DHT22;4618;48.818;9.088;2023-02-26T17:38:23;0.30;99.90
9167;DHT22;4618;48.818;9.088;2023-02-26T17:40:48;0.30;99.90
9167;DHT22;4618;48.818;9.088;2023-02-26T17:43:18;0.20;99.90
9167;DHT22;4618;48.818;9.088;2023-02-26T17:45:44;0.10;99.90
9167;DHT22;4618;48.818;9.088;2023-02-26T17:48:12;0.10;99.90
9167;DHT22;4618;48.818;9.088;2023-02-26T17:50:54;0.10;99.90
9167;DHT22;4618;48.818;9.088;2023-02-26T17:53:22;0.10;99.90
9167;DHT22;4618;48.818;9.088;2023-02-26T17:55:50;0.20;99.90
9167;DHT22;4618;48.818;9.088;2023-02-26T17:58:21;0.20;99.90
9167;DHT22;4618;48.818;9.088;2023-02-26T18:00:48;0.20;99.90
9167;DHT22;4618;48.818;9.088;2023-02-26T18:03:17;0.20;99.90
9167;DHT22;4618;48.818;9.088;2023-02-26T18:05:45;0.10;99.90
9167;DHT22;4618;48.818;9.088;2023-02-26T18:08:23;0.10;99.90
9167;DHT22;4618;48.818;9.088;2023-02-26T18:10:50;0.10;99.90
9167;DHT22;4618;48.818;9.088;2023-02-26T18:13:16;0.00;99.90
9167;DHT22;4618;48.818;9.088;2023-02-26T18:15:42;-0.10;99.90
9167;DHT22;4618;48.818;9.088;2023-02-26T18:18:11;-0.20;99.90
9167;DHT22;4618;48.818;9.088;2023-02-26T18:20:37;-0.30;99.90
9167;DHT22;4618;48.818;9.088;2023-02-26T18:23:04;-0.30;99.90
9167;DHT22;4618;48.818;9.088;2023-02-26T18:25:31;-0.40;99.90
9167;DHT22;4618;48.818;9.088;2023-02-26T18:27:57;-0.40;99.90
9167;DHT22;4618;48.818;9.088;2023-02-26T18:30:32;-0.50;99.90
9167;DHT22;4618;48.818;9.088;2023-02-26T18:32:58;-0.50;99.90
9167;DHT22;4618;48.818;9.088;2023-02-26T18:35:25;-0.60;99.90
9167;DHT22;4618;48.818;9.088;2023-02-26T18:37:52;-0.60;99.90
9167;DHT22;4618;48.818;9.088;2023-02-26T18:40:20;-0.70;99.90
9167;DHT22;4618;48.818;9.088;2023-02-26T18:42:47;-0.70;99.90
9167;DHT22;4618;48.818;9.088;2023-02-26T18:45:13;-0.80;99.90
9167;DHT22;4618;48.818;9.088;2023-02-26T18:47:39;-0.90;99.90
9167;DHT22;4618;48.818;9.088;2023-02-26T18:50:06;-0.90;99.90
9167;DHT22;4618;48.818;9.088;2023-02-26T18:52:32;-0.90;99.90
9167;DHT22;4618;48.818;9.088;2023-02-26T18:54:58;-0.90;99.90